Time;durP1;ratioP1;P1;durP2;ratioP2;P2;SDS_P1;SDS_P2;PMS_P1;PMS_P2;Temp;Humidity;BMP_temperature;BMP_pressure;BME280_temperature;BME280_humidity;BME280_pressure;Samples;Min_cycle;Max_cycle;Signal;HPM_P1;HPM_P2
2023/03/26 00:01:18;;;;;;;62.00;7.30;;;;;;;-145.18;100.00;46677.97;6153027;23;20680;-73
2023/03/26 00:03:45;;;;;;;47.43;6.37;;;;;;;-145.18;100.00;46683.84;6152663;23;20308;-72
2023/03/26 00:06:14;;;;;;;48.53;6.83;;;;;;;-145.18;100.00;46677.97;6152763;23;20247;-72
2023/03/26 00:08:43;;;;;;;53.57;5.97;;;;;;;-145.18;100.00;46677.97;6152759;23;20538;-72
2023/03/26 00:11:11;;;;;;;46.33;6.50;;;;;;;-145.18;100.00;46681.88;6151032;23;20220;-73
2023/03/26 00:13:37;;;;;;;35.10;5.40;;;;;;;-145.18;100.00;46681.88;6152594;23;20231;-72
2023/03/26 00:16:03;;;;;;;37.97;5.67;;;;;;;-145.18;100.00;46681.88;6152838;23;20240;-73
2023/03/26 00:18:30;;;;;;;38.50;5.23;;;;;;;-145.18;100.00;46679.94;6152252;23;20521;-72
2023/03/26 00:20:57;;;;;;;57.00;5.93;;;;;;;-145.18;100.00;46685.78;6152907;23;20228;-72
2023/03/26 00:23:23;;;;;;;52.13;6.23;;;;;;;-145.18;100.00;46683.84;6152348;23;20264;-72
2023/03/26 00:25:50;;;;;;;41.70;5.87;;;;;;;-145.18;100.00;46681.88;6153065;23;20266;-72
2023/03/26 00:28:20;;;;;;;39.83;5.70;;;;;;;-145.18;100.00;46689.69;6152744;23;20665;-72
2023/03/26 00:30:46;;;;;;;54.90;5.93;;;;;;;-145.18;100.00;46679.94;6152842;23;20236;-73
2023/03/26 00:33:16;;;;;;;46.73;6.47;;;;;;;-145.18;100.00;46687.75;6152445;23;20224;-72
2023/03/26 00:35:42;;;;;;;47.27;5.77;;;;;;;-145.18;100.00;46693.59;6152363;23;20708;-72
2023/03/26 00:38:07;;;;;;;40.97;6.00;;;;;;;-145.18;100.00;46697.50;6152565;23;20227;-73
2023/03/26 00:40:35;;;;;;;41.70;6.00;;;;;;;-145.18;100.00;46693.59;6152341;23;20234;-73
2023/03/26 00:43:01;;;;;;;45.10;4.83;;;;;;;-145.18;100.00;46691.66;6152261;23;20423;-73
2023/03/26 00:45:26;;;;;;;45.70;5.27;;;;;;;-145.18;100.00;46699.47;6152218;23;20312;-73
2023/03/26 00:47:52;;;;;;;43.20;5.27;;;;;;;-145.18;100.00;46683.84;6152387;23;20446;-72
2023/03/26 00:50:17;;;;;;;41.80;4.70;;;;;;;-145.18;100.00;46703.38;6152445;23;20398;-72
2023/03/26 00:52:44;;;;;;;46.77;5.40;;;;;;;-145.18;100.00;46687.75;6152566;23;20513;-73
2023/03/26 00:55:11;;;;;;;40.73;6.47;;;;;;;-145.18;100.00;46689.69;6152439;23;20005;-73
2023/03/26 00:57:39;;;;;;;36.43;5.73;;;;;;;-145.18;100.00;46689.69;6152348;23;20692;-72
2023/03/26 01:00:15;;;;;;;36.93;6.07;;;;;;;-145.18;100.00;46689.69;6152358;23;20272;-72
2023/03/26 01:02:43;;;;;;;43.83;6.50;;;;;;;-145.18;100.00;46687.75;6151943;23;20338;-72
2023/03/26 01:05:34;;;;;;;44.57;5.50;;;;;;;-145.18;100.00;46691.66;6152489;23;20337;-72
2023/03/26 01:08:13;;;;;;;47.23;6.17;;;;;;;-145.18;100.00;46691.66;6152126;23;20230;-72
2023/03/26 01:10:41;;;;;;;32.03;5.20;;;;;;;-145.18;100.00;46685.78;6152489;23;20231;-72
2023/03/26 01:13:07;;;;;;;50.90;6.43;;;;;;;-145.18;100.00;46695.56;6152082;23;20330;-72
2023/03/26 01:15:36;;;;;;;46.77;5.80;;;;;;;-145.18;100.00;46689.69;6151885;23;20259;-72
2023/03/26 01:18:04;;;;;;;42.13;5.93;;;;;;;-145.18;100.00;46687.75;6152108;23;20247;-72
2023/03/26 01:20:37;;;;;;;50.90;5.97;;;;;;;-145.18;100.00;46687.75;6150719;23;20231;-72
2023/03/26 01:23:05;;;;;;;42.10;5.53;;;;;;;-145.18;100.00;46683.84;6151883;23;20263;-72
2023/03/26 01:25:37;;;;;;;40.27;5.90;;;;;;;-145.18;100.00;46681.88;6152178;23;20258;-72
2023/03/26 01:28:07;;;;;;;36.20;4.57;;;;;;;-145.18;100.00;46683.84;6151977;23;20712;-72
2023/03/26 01:30:32;;;;;;;42.13;6.80;;;;;;;-145.18;100.00;46685.78;6150795;23;20220;-72
2023/03/26 01:33:43;;;;;;;42.77;5.63;;;;;;;-145.18;100.00;46683.84;6151606;23;20228;-72
2023/03/26 01:36:28;;;;;;;51.87;6.97;;;;;;;-145.18;100.00;46683.84;6130519;23;20389;-72
2023/03/26 01:39:29;;;;;;;37.80;5.37;;;;;;;-145.18;100.00;46685.78;6150462;23;20322;-72
2023/03/26 01:42:07;;;;;;;52.80;7.10;;;;;;;-145.18;100.00;46681.88;6131793;23;20755;-73
2023/03/26 01:44:36;;;;;;;52.23;6.43;;;;;;;-145.18;100.00;46679.94;6151726;23;20263;-72
2023/03/26 01:47:02;;;;;;;41.37;6.23;;;;;;;-145.18;100.00;46681.88;6152081;23;21073;-72
2023/03/26 01:49:28;;;;;;;39.20;7.27;;;;;;;-145.18;100.00;46687.75;6151856;23;20553;-73
2023/03/26 01:51:56;;;;;;;35.90;7.20;;;;;;;-145.18;100.00;46683.84;6152157;23;20318;-72
2023/03/26 01:54:24;;;;;;;43.80;6.83;;;;;;;-145.18;100.00;46683.84;6151218;23;20787;-72
2023/03/26 01:56:50;;;;;;;47.20;6.30;;;;;;;-145.18;100.00;46679.94;6151814;23;20259;-72
2023/03/26 01:59:33;;;;;;;41.93;6.77;;;;;;;-145.18;100.00;46674.06;6151562;23;20238;-72
2023/03/26 02:02:10;;;;;;;38.90;6.13;;;;;;;-145.18;100.00;46679.94;6116853;23;20028;-72
2023/03/26 02:04:51;;;;;;;47.37;7.53;;;;;;;-145.18;100.00;46679.94;6152353;23;20258;-72
2023/03/26 02:07:27;;;;;;;43.07;6.90;;;;;;;-145.18;100.00;46676.03;6152076;23;20556;-72
2023/03/26 02:10:01;;;;;;;42.05;8.18;;;;;;;-145.18;100.00;46676.03;6152001;23;20231;-72
2023/03/26 02:12:28;;;;;;;54.83;8.23;;;;;;;-145.18;100.00;46685.78;6152010;23;20088;-72
2023/03/26 02:14:53;;;;;;;52.67;9.23;;;;;;;-145.18;100.00;46681.88;6152177;23;20240;-72
2023/03/26 02:17:22;;;;;;;44.87;9.10;;;;;;;-145.18;100.00;46683.84;6152113;23;20243;-72
2023/03/26 02:19:48;;;;;;;49.07;7.97;;;;;;;-145.18;100.00;46683.84;6152398;23;20056;-72
2023/03/26 02:22:14;;;;;;;49.87;7.93;;;;;;;-145.18;100.00;46676.03;6151807;23;20612;-72
2023/03/26 02:24:43;;;;;;;44.80;7.30;;;;;;;-145.18;100.00;46676.03;6152588;23;20060;-72
2023/03/26 02:27:11;;;;;;;39.77;7.20;;;;;;;-145.18;100.00;46679.94;6151937;23;20064;-72
2023/03/26 02:29:38;;;;;;;51.23;7.00;;;;;;;-145.18;100.00;46683.84;6152275;23;20231;-72
2023/03/26 02:32:05;;;;;;;49.27;6.67;;;;;;;-145.18;100.00;46679.94;6151550;23;20232;-72
2023/03/26 02:34:31;;;;;;;46.10;6.77;;;;;;;-145.18;100.00;46683.84;6152209;23;20271;-72
2023/03/26 02:36:57;;;;;;;46.00;7.10;;;;;;;-145.18;100.00;46677.97;6151688;23;20239;-72
2023/03/26 02:39:23;;;;;;;43.93;6.00;;;;;;;-145.18;100.00;46679.94;6152572;23;20014;-72
2023/03/26 02:41:48;;;;;;;46.07;7.10;;;;;;;-145.18;100.00;46676.03;6152304;23;20076;-72
2023/03/26 02:44:14;;;;;;;27.23;5.43;;;;;;;-145.18;100.00;46679.94;6152305;23;20247;-72
2023/03/26 02:46:40;;;;;;;31.00;6.77;;;;;;;-145.18;100.00;46679.94;6150561;23;20490;-72
2023/03/26 02:49:05;;;;;;;35.47;6.27;;;;;;;-145.18;100.00;46687.75;6153263;23;20462;-72
2023/03/26 02:51:33;;;;;;;34.60;6.77;;;;;;;-145.18;100.00;46677.97;6154168;23;20013;-72
2023/03/26 02:54:00;;;;;;;39.20;5.37;;;;;;;-145.18;100.00;46676.03;6153439;23;20009;-72
2023/03/26 02:56:25;;;;;;;38.23;6.00;;;;;;;-145.18;100.00;46676.03;6153989;23;20250;-72
2023/03/26 02:58:50;;;;;;;41.37;5.47;;;;;;;-145.18;100.00;46685.78;6153553;23;20228;-72
2023/03/26 03:01:17;;;;;;;47.90;5.63;;;;;;;-145.18;100.00;46685.78;6153743;23;20005;-72
2023/03/26 03:03:42;;;;;;;38.57;5.67;;;;;;;-145.18;100.00;46677.97;6153416;23;20025;-72
2023/03/26 03:06:08;;;;;;;38.10;6.63;;;;;;;-145.18;100.00;46681.88;6153735;23;20298;-72
2023/03/26 03:08:34;;;;;;;45.93;6.30;;;;;;;-145.18;100.00;46679.94;6153863;23;20013;-72
2023/03/26 03:11:10;;;;;;;44.20;6.20;;;;;;;-145.18;100.00;46677.97;6153692;23;20010;-72
2023/03/26 03:13:35;;;;;;;34.70;6.37;;;;;;;-145.18;100.00;46679.94;6152054;23;20088;-72
2023/03/26 03:16:01;;;;;;;38.93;6.57;;;;;;;-145.18;100.00;46674.06;6153526;23;20626;-72
2023/03/26 03:18:26;;;;;;;38.63;5.83;;;;;;;-145.18;100.00;46679.94;6153153;23;20092;-72
2023/03/26 03:20:52;;;;;;;45.60;6.83;;;;;;;-145.18;100.00;46679.94;6153497;23;20017;-72
2023/03/26 03:23:18;;;;;;;44.30;6.23;;;;;;;-145.18;100.00;46685.78;6153554;23;20017;-72
2023/03/26 03:25:44;;;;;;;34.50;7.33;;;;;;;-145.18;100.00;46677.97;6153865;23;20239;-72
2023/03/26 03:28:10;;;;;;;40.20;5.73;;;;;;;-145.18;100.00;46679.94;6153320;23;20064;-72
2023/03/26 03:30:35;;;;;;;36.40;5.63;;;;;;;-145.18;100.00;46685.78;6153812;23;20335;-72
2023/03/26 03:33:01;;;;;;;33.33;6.93;;;;;;;-145.18;100.00;46685.78;6153191;23;20243;-72
2023/03/26 03:35:28;;;;;;;42.37;6.67;;;;;;;-145.18;100.00;46679.94;6153538;23;19998;-72
2023/03/26 03:37:54;;;;;;;35.93;6.70;;;;;;;-145.18;100.00;46676.03;6153253;23;20029;-72
2023/03/26 03:40:20;;;;;;;33.37;6.03;;;;;;;-145.18;100.00;46676.03;6153674;23;20231;-72
2023/03/26 03:42:46;;;;;;;38.53;6.63;;;;;;;-145.18;100.00;46677.97;6153329;23;20298;-72
2023/03/26 03:45:12;;;;;;;25.80;5.23;;;;;;;-145.18;100.00;46674.06;6153363;23;20327;-72
2023/03/26 03:47:38;;;;;;;38.37;7.13;;;;;;;-145.18;100.00;46672.13;6153360;23;20009;-72
2023/03/26 03:50:05;;;;;;;35.40;6.23;;;;;;;-145.18;100.00;46679.94;6153413;23;20232;-72
2023/03/26 03:52:31;;;;;;;41.43;6.40;;;;;;;-145.18;100.00;46676.03;6153490;23;20009;-72
2023/03/26 03:55:02;;;;;;;35.13;6.03;;;;;;;-145.18;100.00;46676.03;6153063;23;20680;-72
2023/03/26 03:57:30;;;;;;;32.97;5.40;;;;;;;-145.18;100.00;46676.03;6153324;23;20434;-72
2023/03/26 03:59:57;;;;;;;31.77;5.93;;;;;;;-145.18;100.00;46676.03;6152548;23;20223;-72
2023/03/26 04:02:33;;;;;;;28.33;5.50;;;;;;;-145.18;100.00;46683.84;6152890;23;20259;-72
2023/03/26 04:04:59;;;;;;;36.93;5.67;;;;;;;-145.18;100.00;46677.97;6153397;23;20232;-72
2023/03/26 04:07:25;;;;;;;35.83;5.47;;;;;;;-145.18;100.00;46685.78;6150253;23;20703;-72
2023/03/26 04:09:50;;;;;;;35.07;6.03;;;;;;;-145.18;100.00;46683.84;6153100;23;20009;-72
2023/03/26 04:12:16;;;;;;;39.23;5.13;;;;;;;-145.18;100.00;46681.88;6150335;23;20243;-72
2023/03/26 04:14:41;;;;;;;31.60;5.20;;;;;;;-145.18;100.00;46679.94;6152811;23;20037;-72
2023/03/26 04:17:07;;;;;;;34.30;5.47;;;;;;;-145.18;100.00;46683.84;6152514;23;20065;-73
2023/03/26 04:19:33;;;;;;;35.50;7.20;;;;;;;-145.18;100.00;46681.88;6152714;23;20446;-73
2023/03/26 04:22:01;;;;;;;31.10;4.53;;;;;;;-145.18;100.00;46679.94;6150724;23;20314;-73
2023/03/26 04:24:28;;;;;;;25.13;5.13;;;;;;;-145.18;100.00;46681.88;6150426;23;20014;-73
2023/03/26 04:26:57;;;;;;;28.67;5.00;;;;;;;-145.18;100.00;46681.88;6152068;23;20224;-73
2023/03/26 04:29:26;;;;;;;31.43;5.10;;;;;;;-145.18;100.00;46683.84;6152179;23;20294;-73
2023/03/26 04:31:57;;;;;;;31.67;4.70;;;;;;;-145.18;100.00;46685.78;6151772;23;20239;-72
2023/03/26 04:34:24;;;;;;;31.50;5.13;;;;;;;-145.18;100.00;46676.03;6150218;23;20234;-73
2023/03/26 04:36:53;;;;;;;25.80;4.23;;;;;;;-145.18;100.00;46677.97;6152814;23;20274;-73
2023/03/26 04:39:20;;;;;;;32.17;4.87;;;;;;;-145.18;100.00;46685.78;6152699;23;20262;-73
2023/03/26 04:41:47;;;;;;;32.07;4.43;;;;;;;-145.18;100.00;46685.78;6150729;23;20254;-73
2023/03/26 04:44:15;;;;;;;30.97;5.23;;;;;;;-145.18;100.00;46681.88;6151568;23;20372;-73
2023/03/26 04:46:42;;;;;;;25.27;5.30;;;;;;;-145.18;100.00;46676.03;6152633;23;20232;-72
2023/03/26 04:49:08;;;;;;;22.07;3.93;;;;;;;-145.18;100.00;46681.88;6151177;23;20223;-72
2023/03/26 04:51:45;;;;;;;33.70;5.33;;;;;;;-145.18;100.00;46676.03;6152579;23;20700;-72
2023/03/26 04:54:13;;;;;;;32.13;4.70;;;;;;;-145.18;100.00;46677.97;6151844;23;20036;-72
2023/03/26 04:56:42;;;;;;;22.43;4.53;;;;;;;-145.18;100.00;46677.97;6150562;23;20310;-72
2023/03/26 04:59:12;;;;;;;41.47;5.10;;;;;;;-145.18;100.00;46681.88;6152070;23;20235;-72
2023/03/26 05:01:39;;;;;;;37.00;5.30;;;;;;;-145.18;100.00;46676.03;6152642;23;20295;-72
2023/03/26 05:04:04;;;;;;;26.53;4.93;;;;;;;-145.18;100.00;46679.94;6148678;23;20318;-72
2023/03/26 05:06:33;;;;;;;39.77;5.63;;;;;;;-145.18;100.00;46681.88;6150698;23;20248;-72
2023/03/26 05:09:01;;;;;;;25.13;3.90;;;;;;;-145.18;100.00;46687.75;6151813;23;20009;-72
2023/03/26 05:11:27;;;;;;;32.87;5.47;;;;;;;-145.18;100.00;46679.94;6152404;23;20224;-73
2023/03/26 05:13:52;;;;;;;23.00;3.93;;;;;;;-145.18;100.00;46681.88;6150419;23;20228;-72
2023/03/26 05:16:18;;;;;;;31.07;4.87;;;;;;;-145.18;100.00;46679.94;6152413;23;20371;-72
2023/03/26 05:18:45;;;;;;;35.43;4.40;;;;;;;-145.18;100.00;46685.78;6152199;23;20009;-73
2023/03/26 05:21:10;;;;;;;31.80;5.77;;;;;;;-145.18;100.00;46681.88;6152022;23;20009;-73
2023/03/26 05:23:36;;;;;;;33.20;5.70;;;;;;;-145.18;100.00;46685.78;6152163;23;20708;-73
2023/03/26 05:26:01;;;;;;;27.80;4.10;;;;;;;-145.18;100.00;46681.88;6152356;23;20409;-73
2023/03/26 05:28:27;;;;;;;30.43;4.90;;;;;;;-145.18;100.00;46681.88;6151886;23;20069;-73
2023/03/26 05:30:53;;;;;;;26.87;4.63;;;;;;;-145.18;100.00;46679.94;6151846;23;20013;-73
2023/03/26 05:33:19;;;;;;;22.63;4.57;;;;;;;-145.18;100.00;46681.88;6152357;23;20010;-73
2023/03/26 05:35:45;;;;;;;29.03;5.10;;;;;;;-145.18;100.00;46683.84;6152779;23;20005;-72
2023/03/26 05:38:11;;;;;;;31.37;5.70;;;;;;;-145.18;100.00;46677.97;6152099;23;20565;-73
2023/03/26 05:40:36;;;;;;;28.57;5.23;;;;;;;-145.18;100.00;46681.88;6151740;23;20459;-72
2023/03/26 05:43:02;;;;;;;22.23;4.73;;;;;;;-145.18;100.00;46679.94;6151514;23;20272;-73
2023/03/26 05:45:28;;;;;;;31.57;5.13;;;;;;;-145.18;100.00;46677.97;6152578;23;20024;-72
2023/03/26 05:47:54;;;;;;;32.97;5.37;;;;;;;-145.18;100.00;46685.78;6147351;23;20227;-72
2023/03/26 05:50:20;;;;;;;43.47;5.70;;;;;;;-145.18;100.00;46683.84;6149338;23;20064;-73
2023/03/26 05:52:45;;;;;;;25.57;4.23;;;;;;;-145.18;100.00;46676.03;6150714;23;20668;-73
2023/03/26 05:55:12;;;;;;;31.00;4.47;;;;;;;-145.18;100.00;46681.88;6148826;23;20443;-73
2023/03/26 05:57:37;;;;;;;36.33;5.43;;;;;;;-145.18;100.00;46677.97;6148339;23;20013;-73
2023/03/26 06:00:07;;;;;;;31.97;6.17;;;;;;;-145.18;100.00;46676.03;6148353;23;20240;-73
2023/03/26 06:02:33;;;;;;;34.97;5.73;;;;;;;-145.18;100.00;46676.03;6150968;23;20434;-73
2023/03/26 06:05:00;;;;;;;24.80;5.67;;;;;;;-145.18;100.00;46676.03;6151860;23;20238;-73
2023/03/26 06:07:25;;;;;;;31.73;6.63;;;;;;;-145.18;100.00;46676.03;6152199;23;20247;-73
2023/03/26 06:09:52;;;;;;;30.83;5.93;;;;;;;-145.18;100.00;46676.03;6150969;23;20239;-73
2023/03/26 06:12:17;;;;;;;35.77;6.00;;;;;;;-145.18;100.00;46670.16;6150855;23;20187;-73
2023/03/26 06:14:43;;;;;;;41.97;7.10;;;;;;;-145.18;100.00;46674.06;6151458;23;20701;-73
2023/03/26 06:17:09;;;;;;;30.23;7.73;;;;;;;-145.18;100.00;46672.13;6151165;23;20016;-73
2023/03/26 06:19:34;;;;;;;35.43;6.63;;;;;;;-145.18;100.00;46676.03;6151699;23;20005;-73
2023/03/26 06:22:00;;;;;;;36.10;6.73;;;;;;;-145.18;100.00;46674.06;6151024;23;20677;-73
2023/03/26 06:24:25;;;;;;;29.57;6.63;;;;;;;-145.18;100.00;46672.13;6153703;23;20707;-73
2023/03/26 06:26:51;;;;;;;34.93;7.67;;;;;;;-145.18;100.00;46670.16;6153769;23;20002;-73
2023/03/26 06:29:17;;;;;;;35.63;6.93;;;;;;;-145.18;100.00;46676.03;6153489;23;20020;-73
2023/03/26 06:31:42;;;;;;;38.20;6.40;;;;;;;-145.18;100.00;46674.06;6153748;23;20090;-74
2023/03/26 06:34:08;;;;;;;39.23;6.97;;;;;;;-145.18;100.00;46676.03;6152447;23;20449;-74
2023/03/26 06:36:33;;;;;;;33.27;6.63;;;;;;;-145.18;100.00;46676.03;6153826;23;20081;-74
2023/03/26 06:38:58;;;;;;;35.57;7.27;;;;;;;-145.18;100.00;46674.06;6153029;23;20088;-74
2023/03/26 06:41:24;;;;;;;28.73;6.47;;;;;;;-145.18;100.00;46672.13;6153465;23;20391;-73
2023/03/26 06:43:49;;;;;;;42.40;6.47;;;;;;;-145.18;100.00;46674.06;6151750;23;20021;-73
2023/03/26 06:46:15;;;;;;;37.13;7.33;;;;;;;-145.18;100.00;46672.13;6153729;23;20013;-74
2023/03/26 06:48:41;;;;;;;30.67;7.43;;;;;;;-145.18;100.00;46672.13;6154037;23;20002;-74
2023/03/26 06:51:07;;;;;;;35.27;6.87;;;;;;;-145.18;100.00;46672.13;6153350;23;20347;-74
2023/03/26 06:53:32;;;;;;;34.17;7.63;;;;;;;-145.18;100.00;46670.16;6153673;23;20014;-74
2023/03/26 06:55:57;;;;;;;40.77;7.47;;;;;;;-145.18;100.00;46676.03;6153565;23;20250;-74
2023/03/26 06:58:23;;;;;;;30.57;7.50;;;;;;;-145.18;100.00;46674.06;6151707;23;20014;-75
2023/03/26 07:00:52;;;;;;;37.73;6.47;;;;;;;-145.18;100.00;46672.13;6153847;23;20020;-74
2023/03/26 07:03:17;;;;;;;25.40;6.57;;;;;;;-145.18;100.00;46670.16;6152967;23;20340;-74
2023/03/26 07:05:43;;;;;;;36.13;6.77;;;;;;;-145.18;100.00;46677.97;6154111;23;20248;-74
2023/03/26 07:08:08;;;;;;;37.17;8.03;;;;;;;-145.18;100.00;46670.16;6151768;23;20615;-74
2023/03/26 07:10:34;;;;;;;29.07;7.07;;;;;;;-145.18;100.00;46670.16;6151356;23;20010;-74
2023/03/26 07:12:59;;;;;;;27.43;7.10;;;;;;;-145.18;100.00;46676.03;6149231;23;20016;-74
2023/03/26 07:15:27;;;;;;;25.47;6.30;;;;;;;-145.18;100.00;46672.13;6151412;23;20029;-74
2023/03/26 07:17:52;;;;;;;30.83;6.60;;;;;;;-145.18;100.00;46666.25;6150773;23;20009;-74
2023/03/26 07:20:17;;;;;;;31.47;7.77;;;;;;;-145.18;100.00;46676.03;6151252;23;20258;-74
2023/03/26 07:22:43;;;;;;;35.93;7.33;;;;;;;-145.18;100.00;46676.03;6149478;23;20041;-74
2023/03/26 07:25:09;;;;;;;39.00;6.40;;;;;;;-145.18;100.00;46672.13;6152670;23;20010;-74
2023/03/26 07:27:44;;;;;;;23.53;6.00;;;;;;;-145.18;100.00;46674.06;6153351;23;20033;-74
2023/03/26 07:30:47;;;;;;;23.10;5.60;;;;;;;-145.18;100.00;46666.25;6152877;23;20266;-74
2023/03/26 07:33:33;;;;;;;25.80;5.37;;;;;;;-145.18;100.00;46670.16;6149219;23;20346;-74
2023/03/26 07:36:27;;;;;;;21.73;5.22;;;;;;;-145.18;100.00;46672.13;6153314;23;20232;-74
2023/03/26 07:39:05;;;;;;;33.03;5.07;;;;;;;-145.18;100.00;46668.22;6141661;23;20434;-75
2023/03/26 07:41:33;;;;;;;28.43;5.33;;;;;;;-145.18;100.00;46666.25;6153577;23;20291;-75
2023/03/26 07:44:16;;;;;;;31.10;6.00;;;;;;;-145.18;100.00;46666.25;6152511;23;20713;-75
2023/03/26 07:46:42;;;;;;;33.87;5.43;;;;;;;-145.18;100.00;46670.16;6153072;23;20251;-75
2023/03/26 07:49:11;;;;;;;32.33;5.83;;;;;;;-145.18;100.00;46666.25;6151579;23;20873;-75
2023/03/26 07:51:37;;;;;;;30.47;5.93;;;;;;;-145.18;100.00;46662.34;6152681;23;20005;-75
2023/03/26 07:54:03;;;;;;;24.27;5.60;;;;;;;-145.18;100.00;46662.34;6152759;23;20362;-75
2023/03/26 07:56:37;;;;;;;23.37;6.43;;;;;;;-145.18;100.00;46666.25;6153030;23;20013;-75
2023/03/26 07:59:21;;;;;;;30.93;5.47;;;;;;;-145.18;100.00;46672.13;6150962;23;20398;-75
2023/03/26 08:02:17;;;;;;;27.00;6.73;;;;;;;-145.18;100.00;46666.25;6153073;23;20230;-75
2023/03/26 08:04:54;;;;;;;33.90;6.43;;;;;;;-145.18;100.00;46662.34;6152787;23;20255;-75
2023/03/26 08:07:43;;;;;;;30.53;6.67;;;;;;;-145.18;100.00;46666.25;6152987;23;20029;-75
2023/03/26 08:10:26;;;;;;;34.77;6.57;;;;;;;-145.18;100.00;46660.41;6152862;23;20677;-75
2023/03/26 08:13:14;;;;;;;23.83;6.37;;;;;;;-145.18;100.00;46664.31;6152601;23;20869;-75
2023/03/26 08:15:48;;;;;;;24.10;7.07;;;;;;;-145.18;100.00;46656.50;6153150;23;20251;-75
2023/03/26 08:18:40;;;;;;;32.33;6.23;;;;;;;-145.18;100.00;46662.34;6152545;23;20228;-75
2023/03/26 08:21:09;;;;;;;27.27;7.00;;;;;;;-145.18;100.00;46668.22;6152752;23;20259;-75
2023/03/26 08:23:48;;;;;;;28.57;6.57;;;;;;;-145.18;100.00;46664.31;6151039;23;20247;-76
2023/03/26 08:26:28;;;;;;;24.43;5.50;;;;;;;-145.18;100.00;46662.34;6152581;23;20799;-75
2023/03/26 08:29:21;;;;;;;25.30;6.00;;;;;;;-145.18;100.00;46662.34;6152340;23;20228;-76
2023/03/26 08:31:48;;;;;;;25.13;5.40;;;;;;;-145.18;100.00;46666.25;6150838;23;20239;-75
2023/03/26 08:34:13;;;;;;;26.50;5.40;;;;;;;-145.18;100.00;46668.22;6152357;23;20239;-76
2023/03/26 08:36:39;;;;;;;23.87;6.13;;;;;;;-145.18;100.00;46668.22;6152835;23;20220;-76
2023/03/26 08:39:05;;;;;;;21.93;5.43;;;;;;;-145.18;100.00;46666.25;6151988;23;20010;-76
2023/03/26 08:41:53;;;;;;;16.57;6.37;;;;;;;-145.18;100.00;46666.25;6152912;23;20068;-75
2023/03/26 08:44:47;;;;;;;33.33;7.40;;;;;;;-145.18;100.00;46668.22;6152396;23;20152;-75
2023/03/26 08:47:50;;;;;;;19.13;6.73;;;;;;;-145.18;100.00;46664.31;6152145;23;20220;-76
2023/03/26 08:50:35;;;;;;;28.57;7.63;;;;;;;-145.18;100.00;46666.25;6151750;23;20232;-76
2023/03/26 08:53:07;;;;;;;29.83;6.90;;;;;;;-145.18;100.00;46666.25;6150446;23;20240;-76
2023/03/26 08:56:06;;;;;;;21.83;6.70;;;;;;;-145.18;100.00;46668.22;6151529;23;20280;-76
2023/03/26 08:59:10;;;;;;;24.03;6.93;;;;;;;-145.18;100.00;46672.13;6152429;23;20302;-76
2023/03/26 09:01:56;;;;;;;24.50;6.73;;;;;;;-145.18;100.00;46664.31;6151984;23;20264;-76
2023/03/26 09:05:09;;;;;;;16.83;5.60;;;;;;;-145.18;100.00;46666.25;6151958;23;20299;-76
2023/03/26 09:08:03;;;;;;;20.10;6.00;;;;;;;-145.18;100.00;46662.34;6033326;23;20317;-76
2023/03/26 09:10:51;;;;;;;19.23;7.20;;;;;;;-145.18;100.00;46664.31;6033053;23;20697;-76
2023/03/26 09:13:31;;;;;;;22.37;7.13;;;;;;;-145.18;100.00;46662.34;6135325;23;20236;-76
2023/03/26 09:16:21;;;;;;;25.93;6.83;;;;;;;-145.18;100.00;46668.22;6151839;23;20219;-77
2023/03/26 09:19:09;;;;;;;14.20;6.60;;;;;;;-145.18;100.00;46662.34;6151969;23;20291;-77
2023/03/26 09:22:05;;;;;;;29.53;6.63;;;;;;;-145.18;100.00;46670.16;6152450;23;20232;-77
2023/03/26 09:24:46;;;;;;;16.48;6.03;;;;;;;-145.18;100.00;46668.22;6151152;23;20239;-77
2023/03/26 09:27:37;;;;;;;15.77;5.90;;;;;;;-145.18;100.00;46664.31;6152293;23;20320;-77
2023/03/26 09:30:35;;;;;;;19.77;5.50;;;;;;;-145.18;100.00;46664.31;6151604;23;20888;-77
2023/03/26 09:33:20;;;;;;;19.73;6.63;;;;;;;-145.18;100.00;46670.16;6150281;23;20227;-77
2023/03/26 09:35:53;;;;;;;18.05;5.88;;;;;;;-145.18;100.00;46668.22;6152099;23;20564;-77
2023/03/26 09:38:53;;;;;;;13.40;4.97;;;;;;;-145.18;100.00;46662.34;6151698;23;20033;-77
2023/03/26 09:41:40;;;;;;;14.50;5.23;;;;;;;-145.18;100.00;46666.25;6152199;23;20232;-77
2023/03/26 09:44:31;;;;;;;17.07;5.60;;;;;;;-145.18;100.00;46666.25;6151692;23;20334;-77
2023/03/26 09:47:45;;;;;;;14.17;4.37;;;;;;;-145.18;100.00;46670.16;6151928;23;20227;-77
2023/03/26 09:50:25;;;;;;;14.53;5.03;;;;;;;-145.18;100.00;46672.13;6126530;23;20239;-77
2023/03/26 09:52:56;;;;;;;10.73;3.43;;;;;;;-145.18;100.00;46677.97;6152010;23;20231;-77
2023/03/26 09:55:27;;;;;;;9.97;2.27;;;;;;;-145.18;100.00;46672.13;6150201;23;20232;-77
2023/03/26 09:57:56;;;;;;;12.13;3.30;;;;;;;-145.18;100.00;46677.97;6151285;23;20224;-77
2023/03/26 10:00:28;;;;;;;10.80;3.30;;;;;;;-145.18;100.00;46677.97;6151490;23;20333;-77
2023/03/26 10:03:27;;;;;;;13.77;3.57;;;;;;;-145.18;100.00;46679.94;6151058;23;20338;-77
2023/03/26 10:06:21;;;;;;;11.50;4.60;;;;;;;-145.18;100.00;46681.88;6151758;23;20343;-77
2023/03/26 10:09:05;;;;;;;9.70;4.33;;;;;;;-145.18;100.00;46679.94;6116770;23;20246;-77
2023/03/26 10:11:54;;;;;;;10.53;3.30;;;;;;;-145.18;100.00;46683.84;6151932;23;20223;-77
2023/03/26 10:14:23;;;;;;;11.53;3.17;;;;;;;-145.18;100.00;46683.84;6151808;23;20006;-77
2023/03/26 10:17:16;;;;;;;11.17;3.30;;;;;;;-145.18;100.00;46685.78;6151807;23;20258;-76
2023/03/26 10:20:08;;;;;;;4.77;2.37;;;;;;;-145.18;100.00;46689.69;6151687;23;20303;-77
2023/03/26 10:22:47;;;;;;;4.90;2.40;;;;;;;-145.18;100.00;46687.75;6152144;23;20232;-77
2023/03/26 10:25:22;;;;;;;9.97;3.20;;;;;;;-145.18;100.00;46691.66;6151512;23;20673;-77
2023/03/26 10:28:12;;;;;;;10.97;3.40;;;;;;;-145.18;100.00;46689.69;6150090;23;20872;-77
2023/03/26 10:31:14;;;;;;;6.47;2.80;;;;;;;-145.18;100.00;46685.78;6151512;23;20215;-77
2023/03/26 10:33:51;;;;;;;17.60;4.40;;;;;;;-145.18;100.00;46687.75;6149188;23;20531;-77
2023/03/26 10:36:24;;;;;;;12.03;3.33;;;;;;;-145.18;100.00;46691.66;6151096;23;20220;-77
2023/03/26 10:39:01;;;;;;;9.13;5.47;;;;;;;-145.18;100.00;46687.75;6150647;23;20227;-77
2023/03/26 10:41:39;;;;;;;11.70;3.33;;;;;;;-145.18;100.00;46687.75;6150986;23;20274;-77
2023/03/26 10:44:26;;;;;;;12.53;2.87;;;;;;;-145.18;100.00;46691.66;6150147;23;20330;-77
2023/03/26 10:47:26;;;;;;;8.87;2.90;;;;;;;-145.18;100.00;46689.69;6151012;23;20311;-77
2023/03/26 10:50:12;;;;;;;7.70;2.40;;;;;;;-145.18;100.00;46693.59;6148722;23;20236;-78
2023/03/26 10:52:45;;;;;;;9.67;3.30;;;;;;;-145.18;100.00;46697.50;6150984;23;20212;-77
2023/03/26 10:55:21;;;;;;;15.93;3.70;;;;;;;-145.18;100.00;46699.47;6150488;23;20887;-77
2023/03/26 10:57:59;;;;;;;8.77;2.63;;;;;;;-145.18;100.00;46695.56;6150394;23;20266;-77
2023/03/26 11:00:27;;;;;;;6.77;2.20;;;;;;;-145.18;100.00;46699.47;6150949;23;20005;-77
2023/03/26 11:03:12;;;;;;;7.07;2.53;;;;;;;-145.18;100.00;46695.56;6150207;23;20263;-77
2023/03/26 11:05:53;;;;;;;7.60;2.53;;;;;;;-145.18;100.00;46693.59;6149693;23;20238;-77
2023/03/26 11:08:45;;;;;;;10.83;3.53;;;;;;;-145.18;100.00;46693.59;6152010;23;20224;-77
2023/03/26 11:11:25;;;;;;;10.30;3.20;;;;;;;-145.18;100.00;46687.75;6139691;23;20236;-77
2023/03/26 11:14:09;;;;;;;8.07;2.87;;;;;;;-145.18;100.00;46695.56;6153012;23;20262;-78
2023/03/26 11:16:42;;;;;;;7.70;2.90;;;;;;;-145.18;100.00;46693.59;6153614;23;20227;-77
2023/03/26 11:19:17;;;;;;;6.37;3.20;;;;;;;-145.18;100.00;46689.69;6152803;23;20665;-75
2023/03/26 11:21:48;;;;;;;8.53;3.07;;;;;;;-145.18;100.00;46687.75;6153613;23;20224;-75
2023/03/26 11:24:27;;;;;;;6.73;2.77;;;;;;;-145.18;100.00;46689.69;6152971;23;20309;-75
2023/03/26 11:27:18;;;;;;;5.37;3.30;;;;;;;-145.18;100.00;46681.88;6153213;23;20318;-75